Time;durP1;ratioP1;P1;durP2;ratioP2;P2;SDS_P1;SDS_P2;PMS_P1;PMS_P2;Temp;Humidity;BMP_temperature;BMP_pressure;BME280_temperature;BME280_humidity;BME280_pressure;Samples;Min_cycle;Max_cycle;Signal;HPM_P1;HPM_P2
2023/02/19 00:00:48;;;;;;;;;;;;;;;13.64;75.14;101395.09;1271796;23;685;-66
2023/02/19 00:01:39;;;;;;;;;;;;;;;13.64;75.33;101400.47;1271448;23;623;-67
2023/02/19 00:02:29;;;;;;;;;;;;;;;13.65;75.78;101401.31;1271740;23;752;-66
2023/02/19 00:03:19;;;;;;;;;;;;;;;13.64;75.14;101405.81;1271919;23;665;-67
2023/02/19 00:04:10;;;;;;;;;;;;;;;13.65;75.44;101395.97;1271781;23;619;-67
2023/02/19 00:05:00;;;;;;;;;;;;;;;13.65;75.21;101407.53;1272709;23;657;-66
2023/02/19 00:05:51;;;;;;;;;;;;;;;13.63;75.73;101403.25;1270679;23;635;-66
2023/02/19 00:06:41;;;;;;;;;;;;;;;13.63;75.70;101405.94;1271847;23;740;-66
2023/02/19 00:07:32;;;;;;;;;;;;;;;13.64;75.38;101408.50;1270721;23;598;-66
2023/02/19 00:08:22;;;;;;;;;;;;;;;13.65;75.58;101401.31;1272612;23;610;-66
2023/02/19 00:09:12;;;;;;;;;;;;;;;13.65;75.23;101406.69;1271876;23;634;-68
2023/02/19 00:10:03;;;;;;;;;;;;;;;13.66;75.23;101403.03;1271643;23;656;-65
2023/02/19 00:10:53;;;;;;;;;;;;;;;13.65;75.26;101401.31;1271964;23;665;-66
2023/02/19 00:11:45;;;;;;;;;;;;;;;13.66;75.62;101397.69;1272677;23;645;-67
2023/02/19 00:12:35;;;;;;;;;;;;;;;13.67;75.16;101404.75;1272497;23;680;-67
2023/02/19 00:13:25;;;;;;;;;;;;;;;13.66;75.51;101409.25;1271938;23;642;-67
2023/02/19 00:14:16;;;;;;;;;;;;;;;13.65;75.16;101404.00;1271527;23;641;-68
2023/02/19 00:15:06;;;;;;;;;;;;;;;13.66;75.66;101411.06;1271823;23;685;-68
2023/02/19 00:15:57;;;;;;;;;;;;;;;13.65;75.36;101406.69;1271489;23;1916;-68
2023/02/19 00:16:47;;;;;;;;;;;;;;;13.66;75.48;101411.06;1271881;23;634;-68
2023/02/19 00:17:38;;;;;;;;;;;;;;;13.66;75.63;101405.72;1272081;23;666;-68
2023/02/19 00:18:28;;;;;;;;;;;;;;;13.66;75.09;101408.41;1270307;23;1130;-67
2023/02/19 00:19:19;;;;;;;;;;;;;;;13.65;75.56;101404.00;1271958;23;704;-67
2023/02/19 00:20:09;;;;;;;;;;;;;;;13.66;75.21;101411.06;1265334;23;621;-68
2023/02/19 00:20:59;;;;;;;;;;;;;;;13.65;74.98;101412.91;1273369;23;657;-67
2023/02/19 00:21:50;;;;;;;;;;;;;;;13.65;75.43;101412.91;1271202;23;631;-67
2023/02/19 00:22:40;;;;;;;;;;;;;;;13.66;75.43;101411.06;1272589;23;704;-67
2023/02/19 00:23:31;;;;;;;;;;;;;;;13.66;75.06;101413.75;1270741;23;640;-67
2023/02/19 00:24:21;;;;;;;;;;;;;;;13.66;75.22;101422.66;1271404;23;745;-67
2023/02/19 00:25:12;;;;;;;;;;;;;;;13.66;75.28;101413.75;1272854;23;732;-67
2023/02/19 00:26:02;;;;;;;;;;;;;;;13.65;75.15;101409.38;1272121;23;641;-67
2023/02/19 00:26:53;;;;;;;;;;;;;;;13.65;75.52;101422.75;1272638;23;697;-68
2023/02/19 00:27:43;;;;;;;;;;;;;;;13.64;74.90;101411.19;1270813;23;630;-68
2023/02/19 00:28:33;;;;;;;;;;;;;;;13.63;75.49;101412.13;1271504;23;630;-67
2023/02/19 00:29:24;;;;;;;;;;;;;;;13.64;74.95;101411.19;1271252;23;669;-67
2023/02/19 00:30:14;;;;;;;;;;;;;;;13.65;74.64;101412.03;1272664;23;649;-67
2023/02/19 00:31:05;;;;;;;;;;;;;;;13.64;74.92;101413.00;1270649;23;756;-67
2023/02/19 00:31:55;;;;;;;;;;;;;;;13.64;75.33;101415.69;1271454;23;641;-68
2023/02/19 00:32:45;;;;;;;;;;;;;;;13.64;75.39;101411.19;1273177;23;648;-68
2023/02/19 00:33:36;;;;;;;;;;;;;;;13.64;75.23;101416.53;1272105;23;804;-67
2023/02/19 00:34:26;;;;;;;;;;;;;;;13.65;75.22;101409.38;1272154;23;654;-67
2023/02/19 00:35:17;;;;;;;;;;;;;;;13.65;74.90;101407.53;1272940;23;637;-68
2023/02/19 00:36:07;;;;;;;;;;;;;;;13.63;75.03;101408.59;1272148;23;685;-67
2023/02/19 00:36:58;;;;;;;;;;;;;;;13.62;74.70;101412.25;1272789;23;570;-67
2023/02/19 00:37:48;;;;;;;;;;;;;;;13.62;75.25;101413.09;1271954;23;681;-67
2023/02/19 00:38:38;;;;;;;;;;;;;;;13.62;74.82;101409.56;1272214;23;646;-67
2023/02/19 00:39:29;;;;;;;;;;;;;;;13.62;75.08;101413.09;1272959;23;646;-67
2023/02/19 00:40:19;;;;;;;;;;;;;;;13.62;74.87;101410.44;1272252;23;649;-67
2023/02/19 00:41:19;;;;;;;;;;;;;;;13.62;74.77;101418.47;1272780;23;618;-66
2023/02/19 00:42:09;;;;;;;;;;;;;;;13.62;75.39;101417.59;1272303;23;748;-66
2023/02/19 00:43:00;;;;;;;;;;;;;;;13.61;74.70;101421.28;1272877;23;739;-66
2023/02/19 00:43:50;;;;;;;;;;;;;;;13.60;74.62;101419.56;1271461;23;622;-66
2023/02/19 00:44:40;;;;;;;;;;;;;;;13.62;74.84;101420.28;1272245;23;642;-66
2023/02/19 00:45:33;;;;;;;;;;;;;;;13.61;75.36;101422.13;1271826;23;669;-66
2023/02/19 00:46:23;;;;;;;;;;;;;;;13.61;74.88;101416.78;1271384;23;700;-67
2023/02/19 00:47:14;;;;;;;;;;;;;;;13.60;74.97;101424.91;1271000;23;681;-67
2023/02/19 00:48:04;;;;;;;;;;;;;;;13.61;74.83;101422.13;1272095;23;665;-66
2023/02/19 00:48:55;;;;;;;;;;;;;;;13.62;74.71;101428.31;1272589;23;653;-66
2023/02/19 00:49:45;;;;;;;;;;;;;;;13.63;75.21;101424.66;1270918;23;661;-67
2023/02/19 00:50:36;;;;;;;;;;;;;;;13.64;75.08;101423.72;1272361;23;677;-67
2023/02/19 00:51:26;;;;;;;;;;;;;;;13.62;75.33;101412.25;1273492;23;637;-67
2023/02/19 00:52:16;;;;;;;;;;;;;;;13.63;74.95;101422.00;1273173;23;617;-67
2023/02/19 00:53:07;;;;;;;;;;;;;;;13.62;74.97;101407.75;1272590;23;654;-67
2023/02/19 00:53:57;;;;;;;;;;;;;;;13.62;74.83;101423.81;1270990;23;626;-67
2023/02/19 00:54:48;;;;;;;;;;;;;;;13.62;75.04;101425.63;1271151;23;657;-67
2023/02/19 00:55:38;;;;;;;;;;;;;;;13.61;75.43;101416.78;1272738;23;1892;-67
2023/02/19 00:56:29;;;;;;;;;;;;;;;13.63;74.75;101424.66;1272777;23;622;-66
2023/02/19 00:57:19;;;;;;;;;;;;;;;13.63;74.86;101417.50;1272002;23;681;-66
2023/02/19 00:58:09;;;;;;;;;;;;;;;13.64;75.41;101429.06;1272484;23;661;-66
2023/02/19 00:59:00;;;;;;;;;;;;;;;13.63;74.93;101424.66;1271011;23;628;-66
2023/02/19 00:59:50;;;;;;;;;;;;;;;13.61;75.36;101430.16;1273036;23;668;-66
2023/02/19 01:00:41;;;;;;;;;;;;;;;13.61;75.00;101426.63;1271016;23;615;-66
2023/02/19 01:01:31;;;;;;;;;;;;;;;13.61;74.91;101430.16;1272012;23;614;-66
2023/02/19 01:02:22;;;;;;;;;;;;;;;13.60;75.23;101428.44;1272212;23;670;-66
2023/02/19 01:03:12;;;;;;;;;;;;;;;13.62;75.18;101431.00;1271959;23;697;-66
2023/02/19 01:04:02;;;;;;;;;;;;;;;13.62;75.08;101445.25;1272211;23;693;-66
2023/02/19 01:04:53;;;;;;;;;;;;;;;13.63;75.48;101435.38;1272072;23;661;-66
2023/02/19 01:05:43;;;;;;;;;;;;;;;13.61;75.55;101432.84;1272125;23;700;-66
2023/02/19 01:06:34;;;;;;;;;;;;;;;13.63;75.71;101438.06;1271846;23;622;-66
2023/02/19 01:07:24;;;;;;;;;;;;;;;13.61;75.46;101437.34;1271501;23;622;-66
2023/02/19 01:08:15;;;;;;;;;;;;;;;13.59;75.12;101431.22;1271843;23;637;-67
2023/02/19 01:09:06;;;;;;;;;;;;;;;13.60;75.34;101441.84;1272161;23;696;-66
2023/02/19 01:09:57;;;;;;;;;;;;;;;13.60;75.25;101430.25;1272970;23;669;-67
2023/02/19 01:10:47;;;;;;;;;;;;;;;13.59;75.37;101434.75;1272014;23;622;-67
2023/02/19 01:11:37;;;;;;;;;;;;;;;13.60;75.74;101435.63;1272897;23;808;-67
2023/02/19 01:12:28;;;;;;;;;;;;;;;13.61;75.72;101429.31;1271789;23;618;-67
2023/02/19 01:13:18;;;;;;;;;;;;;;;13.61;75.12;101437.34;1272184;23;872;-67
2023/02/19 01:14:09;;;;;;;;;;;;;;;13.60;75.05;101431.13;1271149;23;611;-67
2023/02/19 01:14:59;;;;;;;;;;;;;;;13.58;74.83;101427.69;1273115;23;605;-67
2023/02/19 01:15:50;;;;;;;;;;;;;;;13.61;75.50;101429.31;1271928;23;2260;-67
2023/02/19 01:16:40;;;;;;;;;;;;;;;13.61;75.70;101438.19;1272957;23;645;-67
2023/02/19 01:17:31;;;;;;;;;;;;;;;13.60;75.44;101436.47;1272746;23;617;-67
2023/02/19 01:18:21;;;;;;;;;;;;;;;13.58;75.10;101432.19;1272279;23;1083;-67
2023/02/19 01:19:12;;;;;;;;;;;;;;;13.56;75.18;101434.97;1271330;23;669;-66
2023/02/19 01:20:02;;;;;;;;;;;;;;;13.55;75.02;101434.09;1271161;23;681;-67
2023/02/19 01:20:52;;;;;;;;;;;;;;;13.55;75.24;101433.25;1272449;23;653;-67
2023/02/19 01:21:43;;;;;;;;;;;;;;;13.55;75.57;101434.09;1270809;23;720;-69
2023/02/19 01:22:33;;;;;;;;;;;;;;;13.57;75.05;101427.78;1271314;23;708;-67
2023/02/19 01:23:24;;;;;;;;;;;;;;;13.55;74.94;101434.09;1270873;23;650;-68
2023/02/19 01:24:15;;;;;;;;;;;;;;;13.58;75.02;101442.91;1272108;23;658;-68
2023/02/19 01:25:05;;;;;;;;;;;;;;;13.59;74.97;101436.59;1272089;23;646;-67
2023/02/19 01:25:56;;;;;;;;;;;;;;;13.59;74.92;101436.59;1271135;23;627;-68
2023/02/19 01:26:46;;;;;;;;;;;;;;;13.60;75.36;101446.34;1272058;23;720;-67
2023/02/19 01:27:37;;;;;;;;;;;;;;;13.60;75.33;101441.84;1271064;23;666;-67
2023/02/19 01:28:28;;;;;;;;;;;;;;;13.59;75.35;101441.94;1271869;23;658;-67
2023/02/19 01:29:18;;;;;;;;;;;;;;;13.60;74.90;101443.66;1272401;23;723;-66
2023/02/19 01:30:09;;;;;;;;;;;;;;;13.59;75.36;101445.47;1271437;23;639;-65
2023/02/19 01:30:59;;;;;;;;;;;;;;;13.59;74.89;101437.44;1271698;23;682;-66
2023/02/19 01:31:50;;;;;;;;;;;;;;;13.60;74.96;101446.34;1271956;23;662;-67
2023/02/19 01:32:40;;;;;;;;;;;;;;;13.58;75.34;101448.25;1271763;23;721;-66
2023/02/19 01:33:30;;;;;;;;;;;;;;;13.59;74.79;101447.28;1271883;23;603;-66
2023/02/19 01:34:21;;;;;;;;;;;;;;;13.59;75.11;101445.47;1271735;23;662;-66
2023/02/19 01:35:11;;;;;;;;;;;;;;;13.59;75.07;101447.28;1271370;23;699;-66
2023/02/19 01:36:02;;;;;;;;;;;;;;;13.58;74.78;101437.53;1271486;23;1940;-66
2023/02/19 01:36:52;;;;;;;;;;;;;;;13.57;75.30;101444.72;1272638;23;681;-65
2023/02/19 01:37:43;;;;;;;;;;;;;;;13.58;75.13;101453.63;1271981;23;645;-65
2023/02/19 01:38:33;;;;;;;;;;;;;;;13.57;75.47;101442.03;1270861;23;670;-65
2023/02/19 01:39:23;;;;;;;;;;;;;;;13.55;74.88;101444.81;1272064;23;690;-66
2023/02/19 01:40:14;;;;;;;;;;;;;;;13.57;74.97;101450.06;1270758;23;662;-66
2023/02/19 01:41:04;;;;;;;;;;;;;;;13.57;74.86;101446.53;1271916;23;652;-66
2023/02/19 01:41:55;;;;;;;;;;;;;;;13.57;75.05;101447.41;1271563;23;705;-65
2023/02/19 01:42:45;;;;;;;;;;;;;;;13.59;75.33;101449.97;1271785;23;618;-65
2023/02/19 01:43:35;;;;;;;;;;;;;;;13.58;75.38;101448.25;1272501;23;685;-65
2023/02/19 01:44:26;;;;;;;;;;;;;;;13.58;75.28;101448.25;1270503;23;665;-64
2023/02/19 01:45:17;;;;;;;;;;;;;;;13.56;75.26;101445.69;1271159;23;685;-65
2023/02/19 01:46:07;;;;;;;;;;;;;;;13.55;74.93;101444.81;1271995;23;693;-66
2023/02/19 01:46:58;;;;;;;;;;;;;;;13.55;75.05;101443.97;1270912;23;724;-65
2023/02/19 01:47:48;;;;;;;;;;;;;;;13.54;75.73;101448.47;1272611;23;602;-65
2023/02/19 01:48:39;;;;;;;;;;;;;;;13.54;75.50;101447.59;1272215;23;637;-67
2023/02/19 01:49:29;;;;;;;;;;;;;;;13.52;74.90;101444.16;1270995;23;681;-65
2023/02/19 01:50:19;;;;;;;;;;;;;;;13.53;75.24;101451.25;1272845;23;929;-65
2023/02/19 01:51:10;;;;;;;;;;;;;;;13.52;75.43;101445.03;1270765;23;686;-66
2023/02/19 01:52:00;;;;;;;;;;;;;;;13.52;75.46;101453.06;1272021;23;744;-66
2023/02/19 01:52:51;;;;;;;;;;;;;;;13.51;75.64;101458.50;1271612;23;681;-64
2023/02/19 01:53:41;;;;;;;;;;;;;;;13.51;75.58;101453.16;1271995;23;630;-65
2023/02/19 01:54:32;;;;;;;;;;;;;;;13.52;75.52;101453.06;1272185;23;645;-66
2023/02/19 01:55:22;;;;;;;;;;;;;;;13.52;74.96;101455.72;1272534;23;656;-66
2023/02/19 01:56:12;;;;;;;;;;;;;;;13.51;75.22;101454.00;1271306;23;701;-66
2023/02/19 01:57:03;;;;;;;;;;;;;;;13.53;75.23;101457.44;1271006;23;678;-66
2023/02/19 01:57:53;;;;;;;;;;;;;;;13.54;75.48;101452.94;1271825;23;610;-66
2023/02/19 01:58:44;;;;;;;;;;;;;;;13.54;75.22;101459.16;1271766;23;648;-66
2023/02/19 01:59:34;;;;;;;;;;;;;;;13.54;75.63;101452.94;1271796;23;662;-66
2023/02/19 02:00:25;;;;;;;;;;;;;;;13.53;75.23;101454.78;1271961;23;634;-66
2023/02/19 02:01:15;;;;;;;;;;;;;;;13.54;75.13;101459.16;1271666;23;658;-66
2023/02/19 02:02:05;;;;;;;;;;;;;;;13.53;75.67;101454.78;1271251;23;677;-66
2023/02/19 02:02:56;;;;;;;;;;;;;;;13.52;75.26;101452.19;1271673;23;682;-66
2023/02/19 02:03:47;;;;;;;;;;;;;;;13.54;75.10;101458.31;1271922;23;658;-67
2023/02/19 02:04:38;;;;;;;;;;;;;;;13.54;74.87;101448.47;1271369;23;638;-67
2023/02/19 02:05:28;;;;;;;;;;;;;;;13.54;75.53;101450.28;1271560;23;662;-67
2023/02/19 02:06:18;;;;;;;;;;;;;;;13.52;75.06;101450.38;1272891;23;767;-68
2023/02/19 02:10:37;;;;;;;;;;;;;;;13.51;75.40;101459.38;1270828;23;654;-68
2023/02/19 02:11:27;;;;;;;;;;;;;;;13.53;75.59;101469.97;1271748;23;653;-67
2023/02/19 02:12:18;;;;;;;;;;;;;;;13.51;75.21;101455.84;1271978;23;638;-68
2023/02/19 02:13:08;;;;;;;;;;;;;;;13.51;75.63;101461.19;1271718;23;634;-68
2023/02/19 02:13:58;;;;;;;;;;;;;;;13.50;74.94;101454.97;1271838;23;688;-68
2023/02/19 02:14:49;;;;;;;;;;;;;;;13.50;75.09;101456.78;1270887;23;615;-67
2023/02/19 02:15:39;;;;;;;;;;;;;;;13.49;75.34;101461.28;1271899;23;1889;-67
2023/02/19 02:16:30;;;;;;;;;;;;;;;13.49;75.07;101458.59;1270643;23;677;-67
2023/02/19 02:17:20;;;;;;;;;;;;;;;13.50;75.72;101457.66;1271557;23;661;-67
2023/02/19 02:18:11;;;;;;;;;;;;;;;13.51;75.74;101462.03;1272157;23;1804;-67
2023/02/19 02:19:01;;;;;;;;;;;;;;;13.52;75.21;101465.59;1270530;23;623;-67
2023/02/19 02:19:51;;;;;;;;;;;;;;;13.52;74.99;101460.22;1272730;23;634;-67
2023/02/19 02:20:42;;;;;;;;;;;;;;;13.53;75.49;101454.78;1272598;23;705;-67
2023/02/19 02:21:33;;;;;;;;;;;;;;;13.51;75.52;101461.19;1271715;23;637;-67
2023/02/19 02:22:23;;;;;;;;;;;;;;;13.53;75.44;101461.94;1271858;23;671;-67
2023/02/19 02:23:14;;;;;;;;;;;;;;;13.53;75.15;101456.59;1271690;23;630;-67
2023/02/19 02:24:04;;;;;;;;;;;;;;;13.53;75.20;101465.47;1271846;23;626;-67
2023/02/19 02:24:54;;;;;;;;;;;;;;;13.53;75.20;101457.44;1272570;23;650;-68
2023/02/19 02:25:45;;;;;;;;;;;;;;;13.52;75.67;101460.22;1270849;23;619;-68
2023/02/19 02:26:35;;;;;;;;;;;;;;;13.52;75.14;101460.22;1272018;23;679;-68
2023/02/19 02:27:26;;;;;;;;;;;;;;;13.51;75.55;101458.50;1270555;23;666;-67
2023/02/19 02:28:16;;;;;;;;;;;;;;;13.49;75.24;101455.94;1270816;23;678;-68
2023/02/19 02:29:07;;;;;;;;;;;;;;;13.49;75.45;101463.97;1271954;23;658;-68
2023/02/19 02:29:57;;;;;;;;;;;;;;;13.51;75.14;101467.41;1270888;23;678;-68
2023/02/19 02:30:47;;;;;;;;;;;;;;;13.49;75.39;101461.28;1271855;23;641;-68
2023/02/19 02:31:38;;;;;;;;;;;;;;;13.50;75.53;101463.00;1271628;23;631;-68
2023/02/19 02:32:28;;;;;;;;;;;;;;;13.50;75.19;101463.00;1271758;23;602;-68
2023/02/19 02:33:19;;;;;;;;;;;;;;;13.49;75.20;101466.66;1272365;23;724;-67
2023/02/19 02:34:09;;;;;;;;;;;;;;;13.49;75.22;101472.00;1272737;23;673;-67
2023/02/19 02:35:00;;;;;;;;;;;;;;;13.50;75.60;101470.19;1272438;23;629;-68
2023/02/19 02:35:50;;;;;;;;;;;;;;;13.49;75.54;101466.66;1270190;23;1932;-67
2023/02/19 02:36:40;;;;;;;;;;;;;;;13.47;75.05;101468.56;1271048;23;649;-68
2023/02/19 02:37:31;;;;;;;;;;;;;;;13.48;75.09;101469.41;1270464;23;713;-67
2023/02/19 02:38:21;;;;;;;;;;;;;;;13.48;75.60;101464.06;1271653;23;606;-67
2023/02/19 02:39:12;;;;;;;;;;;;;;;13.48;75.75;101464.94;1272853;23;617;-67
2023/02/19 02:40:02;;;;;;;;;;;;;;;13.49;75.64;101466.66;1272240;23;649;-67
2023/02/19 02:40:53;;;;;;;;;;;;;;;13.51;75.37;101469.22;1270815;23;670;-66
2023/02/19 02:41:43;;;;;;;;;;;;;;;13.49;75.92;101471.13;1270963;23;642;-67
2023/02/19 02:42:33;;;;;;;;;;;;;;;13.48;75.65;101470.28;1270958;23;637;-67
2023/02/19 02:43:24;;;;;;;;;;;;;;;13.48;75.40;101470.28;1270422;23;631;-66
2023/02/19 02:44:14;;;;;;;;;;;;;;;13.49;75.54;101472.00;1271709;23;662;-67
2023/02/19 02:46:14;;;;;;;;;;;;;;;13.50;75.60;101471.03;1271222;23;747;-67
2023/02/19 02:47:04;;;;;;;;;;;;;;;13.48;75.72;101469.41;1271695;23;622;-67
2023/02/19 02:47:55;;;;;;;;;;;;;;;13.46;75.62;101466.84;1271852;23;685;-66
2023/02/19 02:48:45;;;;;;;;;;;;;;;13.45;75.00;101462.44;1271606;23;708;-66
2023/02/19 02:50:03;;;;;;;;;;;;;;;13.47;75.03;101467.69;1272003;23;669;-66
2023/02/19 02:50:46;;;;;;;;;;;;;;;13.47;75.57;101473.91;1272505;23;630;-66
2023/02/19 02:51:36;;;;;;;;;;;;;;;13.48;75.40;101466.75;1271903;23;650;-66
2023/02/19 02:55:03;;;;;;;;;;;;;;;13.47;75.02;101473.91;1270868;23;657;-66
2023/02/19 02:55:54;;;;;;;;;;;;;;;13.46;74.99;101472.19;1271510;23;1893;-65
2023/02/19 02:56:45;;;;;;;;;;;;;;;13.46;74.69;101472.19;1272667;23;674;-65
2023/02/19 02:57:35;;;;;;;;;;;;;;;13.46;75.52;101466.84;1272662;23;664;-66
2023/02/19 02:58:26;;;;;;;;;;;;;;;13.45;75.62;101465.13;1271733;23;680;-65
2023/02/19 02:59:16;;;;;;;;;;;;;;;13.46;74.92;101468.66;1271772;23;646;-65
2023/02/19 03:00:07;;;;;;;;;;;;;;;13.47;75.20;101473.06;1272340;23;685;-66
2023/02/19 03:02:17;;;;;;;;;;;;;;;13.46;74.99;101474.88;1272755;23;736;-65
2023/02/19 03:03:07;;;;;;;;;;;;;;;13.44;75.16;101471.44;1271745;23;732;-66
2023/02/19 03:03:58;;;;;;;;;;;;;;;13.46;75.14;101476.69;1270526;23;674;-65
2023/02/19 03:05:57;;;;;;;;;;;;;;;13.47;75.13;101479.28;1270996;23;626;-66
2023/02/19 03:06:48;;;;;;;;;;;;;;;13.47;75.95;101489.13;1272618;23;630;-67
2023/02/19 03:07:38;;;;;;;;;;;;;;;13.46;75.58;101477.56;1272705;23;639;-64
2023/02/19 03:08:29;;;;;;;;;;;;;;;13.47;75.86;101484.63;1271812;23;653;-65
2023/02/19 03:09:19;;;;;;;;;;;;;;;13.48;75.21;101475.63;1270690;23;662;-65
2023/02/19 03:10:09;;;;;;;;;;;;;;;13.47;75.52;101479.28;1271686;23;653;-66
2023/02/19 03:19:17;;;;;;;;;;;;;;;13.47;75.33;101484.63;1272486;23;676;-66
2023/02/19 03:19:18;;;;;;;;;;;;;;;13.46;75.47;101488.25;1267368;23;665;-66
2023/02/19 03:20:08;;;;;;;;;;;;;;;13.45;75.04;101491.91;1266553;23;646;-66
2023/02/19 03:20:59;;;;;;;;;;;;;;;13.45;75.07;101493.72;1265986;23;685;-66
2023/02/19 03:21:49;;;;;;;;;;;;;;;13.45;74.95;101493.72;1265625;23;735;-66
2023/02/19 03:22:40;;;;;;;;;;;;;;;13.45;75.01;101491.91;1266584;23;678;-66
2023/02/19 03:26:04;;;;;;;;;;;;;;;13.43;75.10;101485.81;1267331;23;666;-66
2023/02/19 03:26:54;;;;;;;;;;;;;;;13.44;74.95;101492.84;1266427;23;634;-66
2023/02/19 03:27:44;;;;;;;;;;;;;;;13.45;75.75;101496.41;1265732;23;694;-66
2023/02/19 03:29:44;;;;;;;;;;;;;;;13.43;75.34;101499.19;1267438;23;665;-67
2023/02/19 03:30:34;;;;;;;;;;;;;;;13.43;75.39;101499.19;1265665;23;657;-67
2023/02/19 03:31:25;;;;;;;;;;;;;;;13.42;74.96;101486.78;1260231;23;669;-67
2023/02/19 03:32:15;;;;;;;;;;;;;;;13.44;75.24;101494.69;1261629;23;673;-67
2023/02/19 03:33:06;;;;;;;;;;;;;;;13.42;75.31;101494.81;1268024;23;716;-67
2023/02/19 03:33:57;;;;;;;;;;;;;;;13.42;75.46;101494.81;1265440;23;665;-67
2023/02/19 03:34:47;;;;;;;;;;;;;;;13.42;75.16;101502.84;1266525;23;658;-66
2023/02/19 03:35:38;;;;;;;;;;;;;;;13.44;75.01;101495.53;1266558;23;646;-67
2023/02/19 03:36:28;;;;;;;;;;;;;;;13.45;75.13;101502.59;1265580;23;592;-67
2023/02/19 03:37:23;;;;;;;;;;;;;;;13.45;75.02;101496.41;1265853;23;693;-67
2023/02/19 03:38:17;;;;;;;;;;;;;;;13.45;75.07;101499.94;1266425;23;650;-67
2023/02/19 03:39:07;;;;;;;;;;;;;;;13.45;75.17;101494.56;1265604;23;623;-67
2023/02/19 03:39:58;;;;;;;;;;;;;;;13.47;75.59;101500.69;1265942;23;678;-67
2023/02/19 03:40:48;;;;;;;;;;;;;;;13.46;75.31;101498.13;1265659;23;662;-67
2023/02/19 03:41:39;;;;;;;;;;;;;;;13.43;74.95;101501.88;1265763;23;625;-67
2023/02/19 03:42:29;;;;;;;;;;;;;;;13.46;75.17;101503.47;1265543;23;644;-66
2023/02/19 03:43:19;;;;;;;;;;;;;;;13.45;75.05;101502.59;1265650;23;630;-66
2023/02/19 03:44:10;;;;;;;;;;;;;;;13.46;75.59;101504.31;1265873;23;766;-66
2023/02/19 03:45:00;;;;;;;;;;;;;;;13.46;75.07;101500.78;1265647;23;635;-66
2023/02/19 03:45:51;;;;;;;;;;;;;;;13.46;75.39;101498.13;1266637;23;676;-66
2023/02/19 03:46:41;;;;;;;;;;;;;;;13.47;75.45;101499.84;1265542;23;652;-65
2023/02/19 03:47:32;;;;;;;;;;;;;;;13.46;75.51;101509.69;1265635;23;645;-66
2023/02/19 03:48:23;;;;;;;;;;;;;;;13.44;74.98;101506.25;1260137;23;708;-65
2023/02/19 03:49:13;;;;;;;;;;;;;;;13.42;75.76;101508.19;1261837;23;783;-66
2023/02/19 03:50:03;;;;;;;;;;;;;;;13.43;75.07;101506.38;1268015;23;625;-66
2023/02/19 03:50:54;;;;;;;;;;;;;;;13.41;75.68;101514.50;1265810;23;755;-66
2023/02/19 03:51:44;;;;;;;;;;;;;;;13.41;75.36;101511.84;1265609;23;629;-66
2023/02/19 03:52:35;;;;;;;;;;;;;;;13.43;75.47;101514.41;1265798;23;669;-67
2023/02/19 03:53:25;;;;;;;;;;;;;;;13.42;75.54;101512.69;1259980;23;796;-67
2023/02/19 03:54:15;;;;;;;;;;;;;;;13.42;75.16;101513.53;1260058;23;666;-67
2023/02/19 03:55:06;;;;;;;;;;;;;;;13.42;75.08;101518.91;1267728;23;708;-67
2023/02/19 03:55:56;;;;;;;;;;;;;;;13.42;74.98;101518.91;1265626;23;1917;-67
2023/02/19 03:56:47;;;;;;;;;;;;;;;13.42;75.01;101524.25;1265856;23;635;-67
2023/02/19 03:57:37;;;;;;;;;;;;;;;13.42;75.54;101520.72;1265559;23;822;-67
2023/02/19 03:58:28;;;;;;;;;;;;;;;13.41;75.30;101527.91;1266631;23;692;-67
2023/02/19 03:59:18;;;;;;;;;;;;;;;13.41;75.03;101522.53;1265475;23;602;-67
2023/02/19 04:00:09;;;;;;;;;;;;;;;13.42;75.05;101531.44;1265525;23;817;-67
2023/02/19 04:00:59;;;;;;;;;;;;;;;13.40;74.97;101531.53;1265549;23;670;-67
2023/02/19 04:01:49;;;;;;;;;;;;;;;13.40;75.58;101528.84;1260095;23;622;-67
2023/02/19 04:02:40;;;;;;;;;;;;;;;13.40;75.43;101525.31;1259449;23;686;-67
2023/02/19 04:03:30;;;;;;;;;;;;;;;13.40;75.43;101536.88;1267853;23;689;-67
2023/02/19 04:04:21;;;;;;;;;;;;;;;13.40;75.14;101536.88;1265755;23;654;-67
2023/02/19 04:05:11;;;;;;;;;;;;;;;13.38;74.88;101529.91;1265635;23;623;-68
2023/02/19 04:06:02;;;;;;;;;;;;;;;13.38;75.07;101530.75;1265762;23;697;-67
2023/02/19 04:06:52;;;;;;;;;;;;;;;13.38;74.99;101527.22;1265880;23;662;-67
2023/02/19 04:07:42;;;;;;;;;;;;;;;13.40;75.44;101538.69;1265681;23;630;-67
2023/02/19 04:08:33;;;;;;;;;;;;;;;13.38;75.23;101541.47;1265834;23;662;-66
2023/02/19 04:09:23;;;;;;;;;;;;;;;13.38;75.51;101537.94;1265553;23;682;-67
2023/02/19 04:10:14;;;;;;;;;;;;;;;13.38;75.16;101544.16;1265830;23;686;-67
2023/02/19 04:11:04;;;;;;;;;;;;;;;13.38;75.53;101541.47;1265431;23;1053;-64
2023/02/19 04:11:55;;;;;;;;;;;;;;;13.38;75.29;101538.78;1265742;23;622;-66
2023/02/19 04:12:45;;;;;;;;;;;;;;;13.39;75.09;101542.34;1266399;23;775;-67
2023/02/19 04:13:35;;;;;;;;;;;;;;;13.41;75.03;101545.78;1265766;23;661;-64
2023/02/19 04:14:26;;;;;;;;;;;;;;;13.38;75.39;101538.78;1266537;23;637;-66
2023/02/19 04:15:16;;;;;;;;;;;;;;;13.39;75.44;101540.53;1265468;23;673;-66
2023/02/19 04:16:07;;;;;;;;;;;;;;;13.38;75.07;101543.28;1265644;23;1928;-66
2023/02/19 04:16:57;;;;;;;;;;;;;;;13.38;75.67;101543.28;1265965;23;697;-65
2023/02/19 04:17:47;;;;;;;;;;;;;;;13.37;75.71;101542.44;1265343;23;1022;-65
2023/02/19 04:18:38;;;;;;;;;;;;;;;13.36;75.50;101540.72;1265587;23;662;-65
2023/02/19 04:19:28;;;;;;;;;;;;;;;13.37;74.99;101550.47;1265476;23;637;-66
2023/02/19 04:20:19;;;;;;;;;;;;;;;13.37;75.47;101553.13;1265756;23;678;-65
2023/02/19 04:21:09;;;;;;;;;;;;;;;13.38;75.12;101543.28;1264901;23;603;-66
2023/02/19 04:21:59;;;;;;;;;;;;;;;13.37;75.22;101547.78;1267040;23;602;-66
2023/02/19 04:22:50;;;;;;;;;;;;;;;13.37;75.34;101555.81;1265860;23;653;-66
2023/02/19 04:23:41;;;;;;;;;;;;;;;13.37;75.57;101553.13;1265623;23;618;-65
2023/02/19 04:24:31;;;;;;;;;;;;;;;13.37;75.42;101552.28;1266326;23;669;-67
2023/02/19 04:25:21;;;;;;;;;;;;;;;13.36;75.03;101554.09;1265692;23;623;-66
2023/02/19 04:26:12;;;;;;;;;;;;;;;13.37;75.46;101555.81;1267323;23;626;-66
2023/02/19 04:27:02;;;;;;;;;;;;;;;13.35;75.20;101555.06;1265650;23;642;-66
2023/02/19 04:27:53;;;;;;;;;;;;;;;13.36;75.42;101559.44;1265831;23;748;-66
2023/02/19 04:28:43;;;;;;;;;;;;;;;13.36;75.15;101556.78;1265647;23;613;-67
2023/02/19 04:29:34;;;;;;;;;;;;;;;13.36;75.48;101559.44;1265717;23;668;-66
2023/02/19 04:30:24;;;;;;;;;;;;;;;13.37;74.87;101553.13;1265425;23;626;-66
2023/02/19 04:31:14;;;;;;;;;;;;;;;13.38;74.85;101565.56;1265593;23;673;-66
2023/02/19 04:32:05;;;;;;;;;;;;;;;13.37;75.24;101563.84;1267262;23;653;-65
2023/02/19 04:32:55;;;;;;;;;;;;;;;13.39;75.21;101563.75;1265451;23;638;-65
2023/02/19 04:33:46;;;;;;;;;;;;;;;13.39;75.49;101564.63;1265699;23;621;-65
2023/02/19 04:34:36;;;;;;;;;;;;;;;13.39;75.12;101567.28;1265462;23;673;-65
2023/02/19 04:35:27;;;;;;;;;;;;;;;13.41;75.67;101564.50;1265706;23;657;-65
2023/02/19 04:36:17;;;;;;;;;;;;;;;13.39;75.44;101567.28;1265451;23;614;-65
2023/02/19 04:37:07;;;;;;;;;;;;;;;13.40;75.30;101569.00;1265652;23;673;-65
2023/02/19 04:37:58;;;;;;;;;;;;;;;13.40;74.77;101577.03;1265689;23;646;-66
2023/02/19 04:38:48;;;;;;;;;;;;;;;13.39;75.40;101578.00;1265538;23;642;-66
2023/02/19 04:39:39;;;;;;;;;;;;;;;13.39;74.88;101572.66;1265631;23;658;-66
2023/02/19 04:40:29;;;;;;;;;;;;;;;13.38;75.37;101570.94;1265552;23;655;-66
2023/02/19 04:41:20;;;;;;;;;;;;;;;13.38;75.08;101576.28;1267356;23;650;-67
2023/02/19 04:42:10;;;;;;;;;;;;;;;13.38;74.90;101580.78;1265345;23;623;-66
2023/02/19 04:43:00;;;;;;;;;;;;;;;13.39;75.13;101582.50;1265675;23;623;-66
2023/02/19 04:43:51;;;;;;;;;;;;;;;13.40;74.87;101585.06;1265943;23;614;-66
2023/02/19 04:44:41;;;;;;;;;;;;;;;13.40;75.44;101584.22;1267274;23;650;-66
2023/02/19 04:45:32;;;;;;;;;;;;;;;13.38;75.67;101587.00;1260912;23;657;-66
2023/02/19 04:46:22;;;;;;;;;;;;;;;13.40;75.08;101585.06;1261684;23;653;-67
2023/02/19 04:47:16;;;;;;;;;;;;;;;13.38;75.41;101588.81;1267188;23;697;-67
2023/02/19 04:48:07;;;;;;;;;;;;;;;13.37;75.14;101595.13;1266504;23;634;-66